Time;durP1;ratioP1;P1;durP2;ratioP2;P2;SDS_P1;SDS_P2;PMS_P1;PMS_P2;Temp;Humidity;BMP_temperature;BMP_pressure;BME280_temperature;BME280_humidity;BME280_pressure;Samples;Min_cycle;Max_cycle;Signal;HPM_P1;HPM_P2
2022/12/29 00:01:36;;;;;;;30.77;14.82;;;;;;;-1.20;nan;101397.19;5043023;28;20048;-70
2022/12/29 00:04:03;;;;;;;30.40;14.90;;;;;;;-1.16;nan;101408.09;5039361;28;20574;-70
2022/12/29 00:06:29;;;;;;;32.80;15.38;;;;;;;-1.25;nan;101395.91;5037445;28;20021;-70
2022/12/29 00:08:54;;;;;;;33.13;14.85;;;;;;;-1.30;nan;101398.88;5045264;28;20407;-70
2022/12/29 00:11:23;;;;;;;31.67;15.40;;;;;;;-1.34;nan;101395.72;5041955;28;20036;-70
2022/12/29 00:16:35;;;;;;;32.85;16.48;;;;;;;-1.30;nan;101404.03;5039442;28;20025;-70
2022/12/29 00:19:01;;;;;;;34.55;15.32;;;;;;;-1.25;nan;101408.84;5036027;28;20388;-70
2022/12/29 00:35:28;;;;;;;27.90;14.00;;;;;;;-1.30;nan;101402.25;5041640;28;20053;-70
2022/12/29 00:46:09;;;;;;;28.38;14.00;;;;;;;-1.21;nan;101400.72;5034343;28;21249;-70
2022/12/29 00:51:18;;;;;;;29.60;14.35;;;;;;;-1.26;nan;101389.94;5033382;28;20040;-70
2022/12/29 00:53:43;;;;;;;30.35;14.15;;;;;;;-1.25;nan;101383.81;5033611;28;20021;-70
2022/12/29 00:56:09;;;;;;;31.23;14.98;;;;;;;-1.30;nan;101373.03;5033427;28;20706;-70
2022/12/29 00:58:34;;;;;;;28.77;14.63;;;;;;;-1.24;nan;101382.88;5032574;28;20480;-70
2022/12/29 01:01:08;;;;;;;29.95;13.90;;;;;;;-1.21;nan;101380.03;5041459;28;20030;-70
2022/12/29 01:03:35;;;;;;;31.73;14.00;;;;;;;-1.15;nan;101399.38;5042730;28;20029;-70
2022/12/29 01:06:05;;;;;;;29.38;13.65;;;;;;;-1.26;nan;101382.19;5034686;28;20029;-70
2022/12/29 01:08:31;;;;;;;30.50;13.32;;;;;;;-1.23;nan;101383.69;5033614;28;20421;-70
2022/12/29 01:11:01;;;;;;;29.48;13.85;;;;;;;-1.05;nan;101405.47;5037279;28;20108;-70
2022/12/29 01:13:26;;;;;;;30.50;13.88;;;;;;;-1.22;nan;101378.41;5043274;28;20090;-70
2022/12/29 01:15:52;;;;;;;30.58;14.23;;;;;;;-1.00;nan;101413.69;5032877;28;20431;-70
2022/12/29 01:18:18;;;;;;;27.45;13.68;;;;;;;-1.41;nan;101349.81;5030227;28;20033;-70
2022/12/29 01:20:43;;;;;;;35.00;13.93;;;;;;;-1.05;nan;101400.31;5034647;28;20079;-70
2022/12/29 01:23:09;;;;;;;28.25;13.45;;;;;;;-1.07;nan;101403.00;5033760;28;20261;-70
2022/12/29 01:25:34;;;;;;;26.45;13.43;;;;;;;-1.06;nan;101398.66;5029700;28;20072;-70
2022/12/29 01:27:59;;;;;;;26.30;13.30;;;;;;;-1.23;nan;101376.75;5029652;28;20075;-70
2022/12/29 01:30:25;;;;;;;25.13;12.70;;;;;;;-1.14;nan;101388.94;5035093;28;20021;-70
2022/12/29 01:32:50;;;;;;;31.73;13.80;;;;;;;-1.13;nan;101398.31;5036299;28;20021;-70
2022/12/29 01:35:16;;;;;;;29.27;14.20;;;;;;;-1.24;nan;101375.13;5046624;28;20029;-70
2022/12/29 01:37:41;;;;;;;24.77;12.65;;;;;;;-1.32;nan;101356.81;5033676;28;20022;-70
2022/12/29 01:40:07;;;;;;;24.50;11.95;;;;;;;-1.19;nan;101382.50;5030320;28;20518;-70
2022/12/29 01:42:32;;;;;;;29.98;13.05;;;;;;;-1.18;nan;101387.53;5031853;28;20060;-70
2022/12/29 01:45:02;;;;;;;26.92;12.82;;;;;;;-1.19;nan;101383.31;5034120;28;20476;-70
2022/12/29 01:47:36;;;;;;;27.45;12.50;;;;;;;-1.18;nan;101384.97;5038751;28;20744;-70
2022/12/29 01:50:07;;;;;;;27.00;11.93;;;;;;;-1.14;nan;101390.72;5032914;28;20047;-70
2022/12/29 01:52:36;;;;;;;27.38;12.32;;;;;;;-1.11;nan;101390.44;5030215;28;20457;-71
2022/12/29 01:55:03;;;;;;;24.50;11.52;;;;;;;-1.13;nan;101382.81;5038131;28;20428;-70
2022/12/29 01:57:33;;;;;;;25.90;11.60;;;;;;;-1.16;nan;101366.75;5033200;28;20048;-70
2022/12/29 02:00:09;;;;;;;24.35;11.05;;;;;;;-1.10;nan;101387.75;5039600;28;20034;-70
2022/12/29 02:02:35;;;;;;;28.85;11.23;;;;;;;-1.08;nan;101372.09;5033360;28;20391;-70
2022/12/29 02:05:09;;;;;;;25.00;12.15;;;;;;;-1.19;nan;101351.50;5037958;28;20372;-70
2022/12/29 02:07:35;;;;;;;22.55;11.10;;;;;;;-1.09;nan;101365.31;5033972;28;20025;-70
2022/12/29 02:10:02;;;;;;;25.73;11.20;;;;;;;-1.09;nan;101370.47;5039390;28;20032;-70
2022/12/29 02:12:27;;;;;;;26.05;12.20;;;;;;;-1.06;nan;101367.63;5030017;28;20036;-70
2022/12/29 02:15:00;;;;;;;25.00;11.65;;;;;;;-1.05;nan;101363.28;5044225;28;20021;-70
2022/12/29 02:17:35;;;;;;;23.35;11.40;;;;;;;-1.04;nan;101373.50;5030064;28;20026;-70
2022/12/29 02:20:06;;;;;;;27.60;12.68;;;;;;;-1.03;nan;101356.22;5032499;28;20483;-70
2022/12/29 02:22:43;;;;;;;27.27;12.55;;;;;;;-1.20;nan;101334.34;5029252;28;20026;-70
2022/12/29 02:25:27;;;;;;;29.10;12.80;;;;;;;-1.09;nan;101350.63;5029706;28;20037;-70
2022/12/29 02:28:14;;;;;;;27.20;13.52;;;;;;;-1.05;nan;101353.78;5029327;28;20104;-70
2022/12/29 02:30:48;;;;;;;27.73;13.38;;;;;;;-1.03;nan;101361.38;5038629;28;20025;-70
2022/12/29 02:33:20;;;;;;;26.95;13.65;;;;;;;-1.15;nan;101338.22;5035349;28;20108;-70
2022/12/29 02:36:11;;;;;;;31.02;14.90;;;;;;;-1.03;nan;101351.06;5041120;28;20091;-70
2022/12/29 02:38:42;;;;;;;35.63;14.38;;;;;;;-1.08;nan;101351.44;5017083;28;20033;-70
2022/12/29 02:41:16;;;;;;;26.85;14.02;;;;;;;-1.13;nan;101346.63;5041074;28;20040;-70
2022/12/29 02:43:59;;;;;;;29.98;14.07;;;;;;;-1.16;nan;101343.50;5041610;28;20033;-70
2022/12/29 02:46:53;;;;;;;27.17;13.70;;;;;;;-1.19;nan;101347.16;5040117;28;20071;-70
2022/12/29 02:49:27;;;;;;;27.40;13.45;;;;;;;-1.35;nan;101316.56;5040977;28;20058;-70
2022/12/29 02:52:01;;;;;;;29.23;13.52;;;;;;;-1.22;nan;101360.31;5043237;28;20111;-70
2022/12/29 02:54:42;;;;;;;26.70;13.82;;;;;;;-1.39;nan;101328.09;5038876;28;20033;-70
2022/12/29 02:57:21;;;;;;;32.65;13.88;;;;;;;-1.22;nan;101356.91;5039761;28;20032;-70
2022/12/29 03:00:16;;;;;;;29.98;13.80;;;;;;;-1.24;nan;101356.22;5047970;28;20033;-70
2022/12/29 03:02:57;;;;;;;30.95;12.98;;;;;;;-1.26;nan;101356.34;5038658;28;20375;-70
2022/12/29 03:05:44;;;;;;;30.42;13.63;;;;;;;-1.25;nan;101360.56;5040115;28;20103;-70
2022/12/29 03:08:39;;;;;;;26.40;12.43;;;;;;;-1.27;nan;101353.88;5037917;28;20068;-70
2022/12/29 03:12:07;;;;;;;26.88;13.20;;;;;;;-1.31;nan;101353.31;5043277;28;20056;-70
2022/12/29 03:17:01;;;;;;;27.30;12.50;;;;;;;-1.39;nan;101343.59;5039087;28;20040;-70
2022/12/29 03:19:36;;;;;;;28.60;12.30;;;;;;;-1.39;nan;101345.34;5038211;28;20052;-70
2022/12/29 03:24:56;;;;;;;25.27;12.13;;;;;;;-1.46;nan;101333.84;5038773;28;20519;-70
2022/12/29 03:27:34;;;;;;;30.23;12.50;;;;;;;-1.38;nan;101347.81;5035524;28;20032;-70
2022/12/29 03:30:05;;;;;;;29.83;12.55;;;;;;;-1.34;nan;101353.53;5039750;28;20026;-70
2022/12/29 03:32:39;;;;;;;23.45;12.63;;;;;;;-1.46;nan;101342.47;5035719;28;20220;-70
2022/12/29 03:35:07;;;;;;;26.67;12.25;;;;;;;-1.38;nan;101352.16;5037748;28;20067;-70
2022/12/29 03:37:39;;;;;;;29.00;13.13;;;;;;;-1.38;nan;101352.16;5031925;28;20056;-70
2022/12/29 03:40:05;;;;;;;25.45;12.35;;;;;;;-1.47;nan;101342.56;5033859;28;20027;-70
2022/12/29 03:42:34;;;;;;;26.27;12.35;;;;;;;-1.39;nan;101353.94;5034018;28;20527;-70
2022/12/29 03:44:59;;;;;;;26.50;11.65;;;;;;;-1.42;nan;101343.00;5033561;28;20018;-70
2022/12/29 03:47:25;;;;;;;26.33;12.23;;;;;;;-1.31;nan;101350.72;5034565;28;20430;-70
2022/12/29 03:49:52;;;;;;;23.00;11.52;;;;;;;-1.32;nan;101343.91;5037396;28;20151;-70
2022/12/29 03:52:17;;;;;;;20.70;10.27;;;;;;;-1.32;nan;101343.91;5039756;28;20040;-70
2022/12/29 03:54:43;;;;;;;28.27;12.10;;;;;;;-1.39;nan;101341.03;5038831;28;20025;-70
2022/12/29 03:57:09;;;;;;;23.20;11.23;;;;;;;-1.39;nan;101337.59;5034619;28;20116;-70
2022/12/29 03:59:35;;;;;;;25.55;11.13;;;;;;;-1.46;nan;101323.53;5035697;28;20472;-70
2022/12/29 04:02:00;;;;;;;26.63;11.77;;;;;;;-1.43;nan;101336.22;5037252;28;20029;-70
2022/12/29 04:04:26;;;;;;;24.58;11.70;;;;;;;-1.37;nan;101343.47;5035940;28;20029;-69
2022/12/29 04:06:51;;;;;;;22.77;11.20;;;;;;;-1.31;nan;101348.16;5031153;28;20030;-70
2022/12/29 04:09:16;;;;;;;23.38;10.95;;;;;;;-1.31;nan;101358.47;5034520;28;20037;-70
2022/12/29 04:11:42;;;;;;;22.98;11.00;;;;;;;-1.33;nan;101355.19;5038974;28;20713;-70
2022/12/29 04:14:07;;;;;;;24.52;10.20;;;;;;;-1.37;nan;101362.34;5033158;28;20075;-70
2022/12/29 04:16:35;;;;;;;22.60;10.70;;;;;;;-1.46;nan;101339.88;5031291;28;20468;-70
2022/12/29 04:19:01;;;;;;;22.73;10.50;;;;;;;-1.38;nan;101358.16;5032834;28;20013;-70
2022/12/29 04:21:27;;;;;;;21.00;10.23;;;;;;;-1.54;nan;101332.72;5033783;28;20026;-70
2022/12/29 04:23:52;;;;;;;25.08;10.98;;;;;;;-1.38;nan;101358.16;5033936;28;20083;-70
2022/12/29 04:26:17;;;;;;;21.42;10.30;;;;;;;-1.38;nan;101354.75;5033294;28;20057;-70
2022/12/29 04:28:42;;;;;;;25.42;10.68;;;;;;;-1.44;nan;101344.91;5029104;28;20017;-70
2022/12/29 04:31:08;;;;;;;23.20;10.57;;;;;;;-1.52;nan;101341.16;5042070;28;20413;-70
2022/12/29 04:33:33;;;;;;;22.50;10.68;;;;;;;-1.37;nan;101358.97;5031811;28;20177;-70
2022/12/29 04:35:59;;;;;;;24.90;11.07;;;;;;;-1.39;nan;101366.00;5032191;28;20025;-70
2022/12/29 04:38:24;;;;;;;25.02;10.07;;;;;;;-1.48;nan;101364.16;5040806;28;21015;-70
2022/12/29 04:40:51;;;;;;;25.50;11.25;;;;;;;-1.53;nan;101365.38;5034185;28;20468;-70
2022/12/29 04:43:19;;;;;;;20.50;10.75;;;;;;;-1.52;nan;101367.00;5036409;28;20392;-70
2022/12/29 04:45:45;;;;;;;20.88;10.45;;;;;;;-1.59;nan;101362.44;5030758;28;20017;-70
2022/12/29 04:48:11;;;;;;;24.73;10.57;;;;;;;-1.54;nan;101360.31;5030081;28;20029;-70
2022/12/29 04:50:37;;;;;;;23.92;10.52;;;;;;;-1.53;nan;101369.72;5042457;28;20032;-69
2022/12/29 04:53:02;;;;;;;24.50;10.20;;;;;;;-1.50;nan;101362.53;5033556;28;20594;-70
2022/12/29 04:55:28;;;;;;;21.50;10.32;;;;;;;-1.49;nan;101371.09;5033260;28;20056;-70
2022/12/29 04:57:53;;;;;;;22.05;9.70;;;;;;;-1.59;nan;101347.75;5032178;28;20384;-70
2022/12/29 05:00:19;;;;;;;20.45;10.35;;;;;;;-1.51;nan;101373.81;5036568;28;20028;-70
2022/12/29 05:02:44;;;;;;;24.55;10.27;;;;;;;-1.60;nan;101353.06;5038097;28;20020;-70
2022/12/29 05:05:10;;;;;;;24.15;10.98;;;;;;;-1.53;nan;101367.94;5034929;28;20409;-71
2022/12/29 05:07:35;;;;;;;23.50;10.57;;;;;;;-1.64;nan;101355.06;5032510;28;20025;-70
2022/12/29 05:10:01;;;;;;;19.75;9.35;;;;;;;-1.67;nan;101354.50;5040120;28;20017;-70
2022/12/29 05:12:30;;;;;;;20.45;10.35;;;;;;;-1.53;nan;101372.31;5032727;28;20388;-70
2022/12/29 05:14:56;;;;;;;20.60;9.90;;;;;;;-1.58;nan;101362.34;5036947;28;20483;-70
2022/12/29 05:17:21;;;;;;;19.98;9.65;;;;;;;-1.72;nan;101349.69;5030698;28;20087;-70
2022/12/29 05:19:46;;;;;;;20.08;9.88;;;;;;;-1.61;nan;101367.72;5031740;28;20378;-71
2022/12/29 05:22:12;;;;;;;20.77;10.27;;;;;;;-2.03;nan;101307.41;5030341;28;20028;-71
2022/12/29 05:24:37;;;;;;;23.20;10.45;;;;;;;-1.68;nan;101366.56;5045199;28;20087;-70
2022/12/29 05:27:03;;;;;;;24.05;10.65;;;;;;;-1.74;nan;101375.63;5031317;28;20033;-71
2022/12/29 05:29:28;;;;;;;23.52;9.77;;;;;;;-1.81;nan;101355.56;5036003;28;20541;-71
2022/12/29 05:31:53;;;;;;;25.52;10.20;;;;;;;-1.66;nan;101380.19;5045010;28;20035;-71
2022/12/29 05:34:19;;;;;;;23.55;11.48;;;;;;;-1.62;nan;101379.00;5043191;28;20021;-71
2022/12/29 05:36:44;;;;;;;20.95;9.85;;;;;;;-1.72;nan;101360.03;5031155;28;20472;-70
2022/12/29 05:39:09;;;;;;;24.13;11.55;;;;;;;-1.61;nan;101372.88;5033181;28;20021;-71
2022/12/29 05:41:35;;;;;;;22.33;11.23;;;;;;;-1.60;nan;101384.06;5030901;28;20549;-71
2022/12/29 05:44:01;;;;;;;21.10;10.07;;;;;;;-1.64;nan;101383.47;5030818;28;20028;-71
2022/12/29 05:46:26;;;;;;;20.45;9.73;;;;;;;-1.67;nan;101378.56;5032263;28;20871;-71
2022/12/29 05:48:52;;;;;;;25.10;11.05;;;;;;;-1.82;nan;101352.19;5032471;28;20036;-70
2022/12/29 05:51:17;;;;;;;23.95;10.18;;;;;;;-1.70;nan;101371.03;5039474;28;20036;-71
2022/12/29 05:53:43;;;;;;;22.75;10.55;;;;;;;-1.73;nan;101368.69;5046526;28;20033;-70
2022/12/29 05:56:08;;;;;;;26.02;11.18;;;;;;;-1.74;nan;101359.31;5029003;28;20476;-71
2022/12/29 05:58:33;;;;;;;26.05;10.65;;;;;;;-1.72;nan;101367.75;5029573;28;20060;-71
2022/12/29 06:00:59;;;;;;;22.48;10.45;;;;;;;-1.68;nan;101378.66;5034209;28;20365;-70
2022/12/29 06:03:24;;;;;;;24.98;10.73;;;;;;;-1.74;nan;101372.22;5031801;28;20021;-71
2022/12/29 06:05:49;;;;;;;26.77;11.13;;;;;;;-1.71;nan;101374.56;5041519;28;20025;-70
2022/12/29 06:08:15;;;;;;;24.17;10.93;;;;;;;-1.74;nan;101375.63;5039357;28;20087;-70
2022/12/29 06:10:40;;;;;;;22.85;10.38;;;;;;;-1.78;nan;101374.22;5039805;28;20017;-71
2022/12/29 06:13:06;;;;;;;24.27;10.65;;;;;;;-1.84;nan;101363.56;5038368;28;20641;-71
2022/12/29 06:15:32;;;;;;;26.58;11.15;;;;;;;-1.82;nan;101367.66;5044232;28;20541;-71
2022/12/29 06:17:57;;;;;;;22.75;10.70;;;;;;;-1.80;nan;101375.28;5039542;28;20388;-71
2022/12/29 06:20:23;;;;;;;24.83;11.07;;;;;;;-1.77;nan;101381.03;5033159;28;20031;-71
2022/12/29 06:22:49;;;;;;;22.85;10.98;;;;;;;-1.79;nan;101375.16;5033873;28;20029;-71
2022/12/29 06:25:15;;;;;;;26.65;10.77;;;;;;;-1.88;nan;101364.75;5035695;28;20048;-71
2022/12/29 06:27:40;;;;;;;23.77;10.95;;;;;;;-1.80;nan;101383.03;5036342;28;20021;-71
2022/12/29 06:30:06;;;;;;;22.75;10.70;;;;;;;-1.88;nan;101372.47;5056191;28;20110;-71
2022/12/29 06:32:32;;;;;;;27.55;11.20;;;;;;;-1.88;nan;101369.91;5036891;28;20022;-71
2022/12/29 06:34:57;;;;;;;23.45;11.18;;;;;;;-1.84;nan;101385.03;5036571;28;20036;-71
2022/12/29 06:37:22;;;;;;;23.50;10.98;;;;;;;-1.90;nan;101369.19;5037047;28;20419;-71
2022/12/29 06:39:47;;;;;;;24.77;11.77;;;;;;;-1.84;nan;101377.28;5035448;28;20100;-71
2022/12/29 06:42:13;;;;;;;24.02;10.88;;;;;;;-1.81;nan;101373.66;5046148;28;20055;-71
2022/12/29 06:44:38;;;;;;;29.85;10.85;;;;;;;-1.80;nan;101375.28;5046449;28;20079;-71
2022/12/29 06:47:04;;;;;;;29.75;11.57;;;;;;;-1.75;nan;101384.31;5038144;28;20052;-71
2022/12/29 06:49:29;;;;;;;22.35;10.80;;;;;;;-1.73;nan;101381.59;5037004;28;20064;-71
2022/12/29 06:51:54;;;;;;;21.42;10.55;;;;;;;-1.70;nan;101376.19;5036813;28;20021;-71
2022/12/29 06:54:20;;;;;;;22.75;10.80;;;;;;;-1.71;nan;101383.13;5040705;28;20444;-70
2022/12/29 06:56:45;;;;;;;24.27;11.00;;;;;;;-1.75;nan;101376.56;5033345;28;20395;-70
2022/12/29 06:59:10;;;;;;;24.25;10.43;;;;;;;-1.67;nan;101390.66;5032498;28;20036;-71
2022/12/29 07:01:36;;;;;;;23.65;10.80;;;;;;;-1.58;nan;101401.06;5036792;28;20029;-69
2022/12/29 07:04:03;;;;;;;27.20;10.38;;;;;;;-1.68;nan;101374.31;5033206;28;20360;-70
2022/12/29 07:06:28;;;;;;;22.52;10.30;;;;;;;-1.54;nan;101384.38;5046626;28;20427;-70
2022/12/29 07:08:54;;;;;;;24.35;10.95;;;;;;;-1.65;nan;101370.66;5032841;28;20124;-70
2022/12/29 07:11:21;;;;;;;23.23;11.18;;;;;;;-1.44;nan;101396.56;5035208;28;20423;-70
2022/12/29 07:13:46;;;;;;;27.08;11.00;;;;;;;-1.39;nan;101403.03;5033333;28;20441;-69
2022/12/29 07:16:12;;;;;;;414.58;101.70;;;;;;;-1.33;nan;101406.88;5032383;28;20025;-70
2022/12/29 07:18:37;;;;;;;204.80;52.50;;;;;;;-0.93;nan;101407.06;5037288;28;20041;-69
2022/12/29 07:21:03;;;;;;;28.20;13.18;;;;;;;-0.94;nan;101404.59;5044340;28;20067;-70
2022/12/29 07:23:28;;;;;;;27.05;12.02;;;;;;;-1.01;nan;101406.03;5038245;28;20030;-68
2022/12/29 07:26:04;;;;;;;27.35;12.10;;;;;;;-0.98;nan;101413.53;5044539;28;20499;-69
2022/12/29 07:28:32;;;;;;;28.30;12.18;;;;;;;-0.97;nan;101407.44;5033082;28;20037;-69
2022/12/29 07:30:58;;;;;;;25.15;11.35;;;;;;;-0.90;nan;101414.56;5046128;28;20017;-71
2022/12/29 07:33:23;;;;;;;23.92;11.07;;;;;;;-0.84;nan;101413.22;5038611;28;20028;-70
2022/12/29 07:35:48;;;;;;;22.98;10.95;;;;;;;-0.76;nan;101412.63;5042669;28;20029;-70
2022/12/29 07:38:14;;;;;;;22.63;11.05;;;;;;;-0.77;nan;101409.19;5037124;28;20055;-71
2022/12/29 07:40:40;;;;;;;26.55;10.73;;;;;;;-0.71;nan;101407.91;5039627;28;20021;-70
2022/12/29 07:43:05;;;;;;;23.20;11.43;;;;;;;-0.68;nan;101403.28;5041741;28;20086;-70
2022/12/29 07:45:34;;;;;;;25.05;10.80;;;;;;;-0.47;nan;101416.22;5040675;28;20438;-70
2022/12/29 07:47:59;;;;;;;26.92;11.43;;;;;;;-0.46;nan;101401.50;5037012;28;20072;-71
2022/12/29 07:50:24;;;;;;;22.83;10.60;;;;;;;-0.43;nan;101394.31;5033558;28;20057;-70
2022/12/29 07:52:50;;;;;;;24.33;10.57;;;;;;;-0.34;nan;101394.47;5035257;28;20467;-71
2022/12/29 07:55:16;;;;;;;28.73;11.00;;;;;;;-0.17;nan;101408.59;5047007;28;20052;-71
2022/12/29 07:57:42;;;;;;;22.50;10.93;;;;;;;-0.16;nan;101397.28;5030487;28;20025;-70
2022/12/29 08:00:09;;;;;;;21.95;10.88;;;;;;;-0.01;nan;101399.38;5042794;28;20021;-70
2022/12/29 08:02:38;;;;;;;24.90;11.10;;;;;;;0.00;nan;101384.69;5032335;28;20068;-70
2022/12/29 08:05:04;;;;;;;27.95;11.75;;;;;;;;;;5036909;28;20048;-70
2022/12/29 08:07:29;;;;;;;32.20;12.63;;;;;;;;;;5033905;28;20033;-70
2022/12/29 08:09:54;;;;;;;26.83;13.27;;;;;;;0.40;nan;101369.06;5040531;28;20148;-70
2022/12/29 08:12:20;;;;;;;30.52;13.30;;;;;;;0.40;nan;101342.34;5040408;28;20036;-72
2022/12/29 08:14:45;;;;;;;29.40;13.80;;;;;;;0.59;nan;101347.53;5035551;28;20044;-71
2022/12/29 08:17:10;;;;;;;32.47;14.32;;;;;;;0.78;nan;101369.25;5031526;28;20014;-71
2022/12/29 08:19:36;;;;;;;28.88;13.93;;;;;;;0.82;nan;101360.25;5040008;28;20372;-71
2022/12/29 08:22:02;;;;;;;28.27;13.20;;;;;;;1.03;nan;101379.06;5040854;28;20020;-70
2022/12/29 08:24:28;;;;;;;25.40;12.20;;;;;;;0.94;nan;101338.41;5030429;28;20029;-71
2022/12/29 08:26:53;;;;;;;24.88;12.10;;;;;;;;;;5034975;28;20025;-73
2022/12/29 08:29:19;;;;;;;22.73;10.77;;;;;;;;;;5041908;28;20029;-72
2022/12/29 08:31:45;;;;;;;22.55;10.68;;;;;;;;;;5037954;28;20028;-73
2022/12/29 08:34:10;;;;;;;20.60;10.05;;;;;;;;;;5034560;28;20025;-72
2022/12/29 08:36:36;;;;;;;23.10;10.63;;;;;;;;;;5037161;28;20024;-71
2022/12/29 08:39:01;;;;;;;20.10;10.70;;;;;;;;;;5033908;28;20025;-72
2022/12/29 08:41:26;;;;;;;24.40;11.82;;;;;;;;;;5035627;28;20056;-71
2022/12/29 08:43:51;;;;;;;20.77;9.77;;;;;;;;;;5038857;28;20495;-74
2022/12/29 08:46:17;;;;;;;18.60;10.30;;;;;;;;;;5035653;28;20087;-73
2022/12/29 08:48:42;;;;;;;21.45;10.55;;;;;;;;;;5039206;28;20784;-73
2022/12/29 08:51:07;;;;;;;22.13;10.00;;;;;;;;;;5033176;28;20048;-72
2022/12/29 08:53:33;;;;;;;21.08;10.52;;;;;;;;;;5029889;28;20281;-73
2022/12/29 08:55:59;;;;;;;21.50;10.98;;;;;;;;;;5032341;28;20091;-74
2022/12/29 08:58:25;;;;;;;24.65;11.95;;;;;;;;;;5030156;28;20053;-74
2022/12/29 09:00:52;;;;;;;26.90;12.45;;;;;;;;;;5036890;28;20056;-71
2022/12/29 09:03:17;;;;;;;30.13;13.25;;;;;;;;;;5044838;28;20605;-71
2022/12/29 09:05:42;;;;;;;28.67;12.47;;;;;;;;;;5038034;28;20119;-74
2022/12/29 09:08:07;;;;;;;20.80;11.27;;;;;;;;;;5039973;28;20690;-73
2022/12/29 09:10:33;;;;;;;21.70;11.03;;;;;;;;;;5040390;28;20277;-73
2022/12/29 09:12:58;;;;;;;21.77;11.07;;;;;;;;;;5036906;28;20025;-72
2022/12/29 09:15:23;;;;;;;23.87;11.70;;;;;;;;;;5035297;28;21165;-73
2022/12/29 09:17:48;;;;;;;21.60;10.93;;;;;;;;;;5035561;28;20305;-72
2022/12/29 09:20:15;;;;;;;21.53;11.40;;;;;;;;;;5036570;28;20017;-73
2022/12/29 09:22:41;;;;;;;23.95;10.27;;;;;;;;;;5040608;28;20357;-73
2022/12/29 09:25:06;;;;;;;18.63;10.15;;;;;;;;;;5036740;28;20128;-72
2022/12/29 09:27:31;;;;;;;21.98;10.38;;;;;;;;;;5037997;28;20029;-71
2022/12/29 09:29:57;;;;;;;24.37;10.10;;;;;;;;;;5042805;28;20036;-71
2022/12/29 09:32:22;;;;;;;22.63;10.50;;;;;;;;;;5035017;28;21008;-72
2022/12/29 09:34:47;;;;;;;20.20;11.02;;;;;;;;;;5035813;28;20059;-72
2022/12/29 09:37:13;;;;;;;21.73;10.37;;;;;;;;;;5041425;28;20108;-72
2022/12/29 09:39:38;;;;;;;20.80;10.10;;;;;;;;;;5034407;28;20267;-72
2022/12/29 09:42:21;;;;;;;21.90;10.47;;;;;;;;;;5034844;28;20026;-70
2022/12/29 09:45:05;;;;;;;18.70;10.57;;;;;;;;;;5033369;28;20281;-70
2022/12/29 09:47:31;;;;;;;17.13;9.15;;;;;;;;;;5039380;28;20071;-69
2022/12/29 09:49:59;;;;;;;20.60;10.40;;;;;;;;;;5038527;28;20048;-69
2022/12/29 09:52:32;;;;;;;20.48;10.35;;;;;;;;;;5031474;28;20032;-70
2022/12/29 09:55:05;;;;;;;19.73;10.57;;;;;;;;;;5036036;28;20108;-70
2022/12/29 09:57:33;;;;;;;18.38;9.68;;;;;;;;;;5040414;28;20116;-70
2022/12/29 10:00:03;;;;;;;17.63;9.18;;;;;;;;;;5040063;28;20059;-70
2022/12/29 10:02:36;;;;;;;20.30;10.10;;;;;;;;;;5042731;28;20429;-70
2022/12/29 10:05:02;;;;;;;18.25;8.88;;;;;;;;;;5040545;28;20499;-70
2022/12/29 10:07:50;;;;;;;19.35;9.43;;;;;;;;;;5044687;28;20041;-69
2022/12/29 10:10:37;;;;;;;17.02;9.02;;;;;;;;;;5038060;28;20469;-69
2022/12/29 10:13:16;;;;;;;23.63;9.38;;;;;;;;;;5030679;28;20101;-70
2022/12/29 10:15:44;;;;;;;16.52;9.30;;;;;;;;;;5031071;28;20128;-69
2022/12/29 10:18:09;;;;;;;19.35;9.55;;;;;;;;;;5033366;28;20022;-70
2022/12/29 10:20:48;;;;;;;19.60;9.57;;;;;;;;;;5029191;28;20040;-70
2022/12/29 10:23:13;;;;;;;16.10;8.98;;;;;;;;;;5046538;28;20056;-70
2022/12/29 10:25:41;;;;;;;16.80;9.23;;;;;;;;;;5042664;28;20080;-70
2022/12/29 10:28:14;;;;;;;15.75;9.25;;;;;;;;;;5043227;28;20087;-70
2022/12/29 10:30:40;;;;;;;15.65;9.35;;;;;;;;;;5035574;28;20026;-70
2022/12/29 10:33:07;;;;;;;15.85;9.18;;;;;;;;;;5033220;28;20040;-70
2022/12/29 10:35:35;;;;;;;16.73;9.25;;;;;;;;;;5028819;28;20484;-70
2022/12/29 10:38:19;;;;;;;16.73;9.07;;;;;;;;;;5029165;28;20029;-70
2022/12/29 10:40:47;;;;;;;18.77;8.77;;;;;;;;;;5033314;28;20551;-70
2022/12/29 10:43:21;;;;;;;18.13;9.27;;;;;;;7.63;nan;101290.19;5034394;28;20479;-70
2022/12/29 10:45:47;;;;;;;16.02;8.82;;;;;;;;;;5042986;28;20045;-70
2022/12/29 10:48:20;;;;;;;29.60;10.77;;;;;;;;;;5034012;28;20487;-70
2022/12/29 10:50:45;;;;;;;18.13;9.30;;;;;;;;;;5036192;28;20033;-70
2022/12/29 10:53:15;;;;;;;19.70;9.20;;;;;;;;;;5035092;28;20021;-70
2022/12/29 10:55:41;;;;;;;23.13;12.75;;;;;;;;;;5035094;28;20053;-70
2022/12/29 10:58:09;;;;;;;16.83;9.13;;;;;;;;;;5042653;28;20455;-70
2022/12/29 11:00:35;;;;;;;14.55;9.77;;;;;;;;;;5045472;28;20415;-70
2022/12/29 11:03:09;;;;;;;15.68;7.70;;;;;;;;;;5033853;28;20029;-71
2022/12/29 11:05:38;;;;;;;12.27;7.20;;;;;;;;;;5033687;28;20144;-70
2022/12/29 11:08:08;;;;;;;16.77;7.95;;;;;;;;;;5043708;28;20029;-70
2022/12/29 11:10:33;;;;;;;17.02;8.43;;;;;;;;;;5044566;28;20021;-70
2022/12/29 11:13:03;;;;;;;15.10;8.13;;;;;;;;;;5047861;28;20029;-70
2022/12/29 11:15:38;;;;;;;15.48;7.85;;;;;;;;;;5034144;28;20021;-70
2022/12/29 11:18:04;;;;;;;16.48;8.05;;;;;;;;;;5034099;28;20017;-69
2022/12/29 11:20:34;;;;;;;15.57;7.50;;;;;;;;;;5033465;28;20101;-69
2022/12/29 11:23:01;;;;;;;15.98;7.40;;;;;;;;;;5034889;28;20314;-68
2022/12/29 11:25:26;;;;;;;12.73;7.57;;;;;;;;;;5037621;28;20056;-68
2022/12/29 11:28:12;;;;;;;10.82;6.70;;;;;;;;;;5046346;28;20040;-68
2022/12/29 11:30:37;;;;;;;17.70;7.18;;;;;;;;;;5025591;28;20071;-69
2022/12/29 11:33:03;;;;;;;15.00;7.20;;;;;;;;;;5040539;28;20061;-68
2022/12/29 11:35:30;;;;;;;12.43;7.20;;;;;;;;;;5040131;28;20065;-69
2022/12/29 11:37:57;;;;;;;13.70;7.30;;;;;;;;;;5044067;28;20037;-70
2022/12/29 11:40:23;;;;;;;12.80;7.28;;;;;;;;;;5039264;28;20044;-69
2022/12/29 11:42:51;;;;;;;14.83;7.13;;;;;;;;;;5040149;28;20066;-68
2022/12/29 11:45:16;;;;;;;12.95;7.43;;;;;;;;;;5040778;28;20779;-68
2022/12/29 11:47:43;;;;;;;15.43;8.03;;;;;;;;;;5038744;28;20029;-70
2022/12/29 11:50:16;;;;;;;16.30;8.15;;;;;;;;;;5053364;28;20616;-69
2022/12/29 11:52:42;;;;;;;12.48;7.18;;;;;;;;;;5036613;28;20387;-69
2022/12/29 11:55:17;;;;;;;15.93;7.75;;;;;;;;;;5041565;28;20025;-69
2022/12/29 11:57:43;;;;;;;14.18;7.57;;;;;;;;;;5033639;28;20029;-68
2022/12/29 12:00:19;;;;;;;13.77;8.00;;;;;;;;;;5035888;28;20589;-69
2022/12/29 12:02:44;;;;;;;13.77;7.57;;;;;;;;;;5053505;28;20426;-69
2022/12/29 12:05:26;;;;;;;13.90;7.90;;;;;;;;;;5038268;28;20021;-69
2022/12/29 12:08:15;;;;;;;13.65;7.45;;;;;;;;;;5053663;28;20036;-69
2022/12/29 12:10:50;;;;;;;19.03;7.30;;;;;;;;;;5034908;28;20591;-69
2022/12/29 12:13:15;;;;;;;14.05;7.97;;;;;;;;;;5038754;28;20109;-69
2022/12/29 12:15:44;;;;;;;11.40;7.70;;;;;;;;;;5033454;28;20112;-68
2022/12/29 12:18:10;;;;;;;14.70;7.93;;;;;;;;;;5033181;28;20277;-69
2022/12/29 12:20:44;;;;;;;13.55;8.07;;;;;;;;;;5031580;28;20025;-68
2022/12/29 12:23:32;;;;;;;11.93;7.47;;;;;;;;;;5030743;28;20104;-69
2022/12/29 12:26:01;;;;;;;14.03;8.10;;;;;;;;;;5034782;28;20550;-68
2022/12/29 12:28:36;;;;;;;15.13;8.48;;;;;;;;;;5030697;28;20282;-72
2022/12/29 12:31:04;;;;;;;12.75;7.70;;;;;;;;;;5036325;28;20045;-72
2022/12/29 12:33:39;;;;;;;13.85;7.75;;;;;;;;;;5043043;28;20063;-73
2022/12/29 12:36:04;;;;;;;16.67;8.20;;;;;;;;;;5041321;28;20099;-73
2022/12/29 12:38:29;;;;;;;15.90;8.02;;;;;;;;;;5036024;28;20104;-73
2022/12/29 12:41:06;;;;;;;13.53;8.27;;;;;;;;;;5041281;28;20037;-73
2022/12/29 12:43:35;;;;;;;14.23;8.55;;;;;;;;;;5040898;28;20281;-73
2022/12/29 12:46:03;;;;;;;14.35;8.63;;;;;;;;;;5040410;28;20079;-72
2022/12/29 12:48:28;;;;;;;19.48;8.63;;;;;;;;;;5044866;28;20471;-72
2022/12/29 12:51:03;;;;;;;16.33;9.17;;;;;;;;;;5033286;28;20027;-72
2022/12/29 12:53:40;;;;;;;15.25;8.85;;;;;;;;;;5042933;28;20037;-74
2022/12/29 12:56:12;;;;;;;15.57;8.93;;;;;;;;;;5044987;28;20064;-73
2022/12/29 12:58:58;;;;;;;13.98;9.10;;;;;;;;;;5031224;28;20028;-73
2022/12/29 13:01:38;;;;;;;17.35;9.40;;;;;;;;;;5038008;28;20395;-73
2022/12/29 13:04:22;;;;;;;15.18;8.80;;;;;;;;;;5043769;28;20024;-74